sensor_id;sensor_type;location;lat;lon;timestamp;pressure;altitude;pressure_sealevel;temperature;humidity
10720;BME280;5411;58.386;15.560;2023-04-01T00:01:50;99779.88;;;-3.76;87.20
10720;BME280;5411;58.386;15.560;2023-04-01T00:04:19;99782.88;;;-3.81;86.94
10720;BME280;5411;58.386;15.560;2023-04-01T00:06:47;99787.50;;;-3.84;87.44
10720;BME280;5411;58.386;15.560;2023-04-01T00:09:16;99786.94;;;-3.88;87.65
10720;BME280;5411;58.386;15.560;2023-04-01T00:11:46;99772.00;;;-3.97;87.59
10720;BME280;5411;58.386;15.560;2023-04-01T00:14:15;99770.63;;;-4.01;87.52
10720;BME280;5411;58.386;15.560;2023-04-01T00:16:43;99778.94;;;-4.07;87.60
10720;BME280;5411;58.386;15.560;2023-04-01T00:19:11;99782.06;;;-4.13;88.06
10720;BME280;5411;58.386;15.560;2023-04-01T00:21:39;99776.50;;;-4.20;88.71
10720;BME280;5411;58.386;15.560;2023-04-01T00:24:08;99780.41;;;-4.25;88.91
10720;BME280;5411;58.386;15.560;2023-04-01T00:26:36;99777.34;;;-4.31;89.22
10720;BME280;5411;58.386;15.560;2023-04-01T00:29:05;99777.72;;;-4.35;89.00
10720;BME280;5411;58.386;15.560;2023-04-01T00:31:34;99780.13;;;-4.43;89.15
10720;BME280;5411;58.386;15.560;2023-04-01T00:34:02;99779.75;;;-4.50;90.16
10720;BME280;5411;58.386;15.560;2023-04-01T00:36:30;99778.72;;;-4.58;89.75
10720;BME280;5411;58.386;15.560;2023-04-01T00:38:59;99786.78;;;-4.61;90.46
10720;BME280;5411;58.386;15.560;2023-04-01T00:41:30;99786.19;;;-4.65;90.00
10720;BME280;5411;58.386;15.560;2023-04-01T00:44:18;99783.84;;;-4.68;90.76
10720;BME280;5411;58.386;15.560;2023-04-01T00:46:48;99784.19;;;-4.73;89.84
10720;BME280;5411;58.386;15.560;2023-04-01T00:49:17;99780.16;;;-4.77;90.60
10720;BME280;5411;58.386;15.560;2023-04-01T00:51:48;99783.38;;;-4.84;91.22
10720;BME280;5411;58.386;15.560;2023-04-01T00:54:18;99782.06;;;-4.90;91.07
10720;BME280;5411;58.386;15.560;2023-04-01T00:56:50;99795.81;;;-4.99;90.96
10720;BME280;5411;58.386;15.560;2023-04-01T00:59:26;99796.41;;;-5.07;90.88
10720;BME280;5411;58.386;15.560;2023-04-01T01:01:57;99792.84;;;-5.17;91.33
10720;BME280;5411;58.386;15.560;2023-04-01T01:04:27;99794.97;;;-5.22;91.60
10720;BME280;5411;58.386;15.560;2023-04-01T01:07:03;99792.81;;;-5.28;93.59
10720;BME280;5411;58.386;15.560;2023-04-01T01:09:43;99794.97;;;-5.33;93.95
10720;BME280;5411;58.386;15.560;2023-04-01T01:12:18;99793.53;;;-5.37;95.22
10720;BME280;5411;58.386;15.560;2023-04-01T01:15:00;99796.38;;;-5.40;96.23
10720;BME280;5411;58.386;15.560;2023-04-01T01:17:37;99791.38;;;-5.43;96.13
10720;BME280;5411;58.386;15.560;2023-04-01T01:20:30;99794.69;;;-5.41;97.07
10720;BME280;5411;58.386;15.560;2023-04-01T01:23:41;99797.91;;;-5.38;97.17
10720;BME280;5411;58.386;15.560;2023-04-01T01:26:27;99792.22;;;-5.31;98.88
10720;BME280;5411;58.386;15.560;2023-04-01T01:29:07;99795.94;;;-5.23;98.91
10720;BME280;5411;58.386;15.560;2023-04-01T01:31:49;99801.38;;;-5.15;99.56
10720;BME280;5411;58.386;15.560;2023-04-01T01:34:22;99800.09;;;-5.09;98.77
10720;BME280;5411;58.386;15.560;2023-04-01T01:36:57;99807.31;;;-5.02;98.68
10720;BME280;5411;58.386;15.560;2023-04-01T01:39:29;99805.91;;;-4.94;98.53
10720;BME280;5411;58.386;15.560;2023-04-01T01:42:02;99799.38;;;-4.89;97.41
10720;BME280;5411;58.386;15.560;2023-04-01T01:44:35;99804.13;;;-4.83;97.05
10720;BME280;5411;58.386;15.560;2023-04-01T01:47:05;99806.34;;;-4.78;97.11
10720;BME280;5411;58.386;15.560;2023-04-01T01:49:35;99799.84;;;-4.73;96.39
10720;BME280;5411;58.386;15.560;2023-04-01T01:52:06;99811.72;;;-4.69;95.41
10720;BME280;5411;58.386;15.560;2023-04-01T01:54:34;99801.84;;;-4.65;95.18
10720;BME280;5411;58.386;15.560;2023-04-01T01:57:06;99803.38;;;-4.62;95.06
10720;BME280;5411;58.386;15.560;2023-04-01T01:59:38;99800.53;;;-4.59;94.38
10720;BME280;5411;58.386;15.560;2023-04-01T02:02:10;99806.59;;;-4.59;94.75
10720;BME280;5411;58.386;15.560;2023-04-01T02:04:45;99812.66;;;-4.58;94.33
10720;BME280;5411;58.386;15.560;2023-04-01T02:07:18;99815.13;;;-4.57;94.46
10720;BME280;5411;58.386;15.560;2023-04-01T02:09:49;99819.53;;;-4.57;93.65
10720;BME280;5411;58.386;15.560;2023-04-01T02:12:19;99814.31;;;-4.57;93.92
10720;BME280;5411;58.386;15.560;2023-04-01T02:14:52;99823.91;;;-4.58;93.56
10720;BME280;5411;58.386;15.560;2023-04-01T02:17:23;99820.34;;;-4.57;93.75
10720;BME280;5411;58.386;15.560;2023-04-01T02:19:56;99823.91;;;-4.58;94.01
10720;BME280;5411;58.386;15.560;2023-04-01T02:22:29;99818.69;;;-4.58;93.94
10720;BME280;5411;58.386;15.560;2023-04-01T02:25:04;99823.31;;;-4.61;93.19
10720;BME280;5411;58.386;15.560;2023-04-01T02:27:34;99823.81;;;-4.68;93.15
10720;BME280;5411;58.386;15.560;2023-04-01T02:30:03;99822.72;;;-4.76;92.16
10720;BME280;5411;58.386;15.560;2023-04-01T02:32:33;99820.84;;;-4.85;92.79
10720;BME280;5411;58.386;15.560;2023-04-01T02:35:05;99830.06;;;-4.92;92.60
10720;BME280;5411;58.386;15.560;2023-04-01T02:37:35;99825.56;;;-5.02;91.98
10720;BME280;5411;58.386;15.560;2023-04-01T02:40:07;99830.88;;;-5.14;92.07
10720;BME280;5411;58.386;15.560;2023-04-01T02:42:36;99833.59;;;-5.27;91.20
10720;BME280;5411;58.386;15.560;2023-04-01T02:45:07;99840.44;;;-5.37;92.61
10720;BME280;5411;58.386;15.560;2023-04-01T02:47:36;99831.78;;;-5.49;92.54
10720;BME280;5411;58.386;15.560;2023-04-01T02:50:06;99838.47;;;-5.57;94.23
10720;BME280;5411;58.386;15.560;2023-04-01T02:52:36;99840.00;;;-5.66;94.74
10720;BME280;5411;58.386;15.560;2023-04-01T02:55:05;99836.06;;;-5.71;95.24
10720;BME280;5411;58.386;15.560;2023-04-01T02:57:33;99840.78;;;-5.77;94.85
10720;BME280;5411;58.386;15.560;2023-04-01T03:00:03;99840.28;;;-5.82;95.25
10720;BME280;5411;58.386;15.560;2023-04-01T03:02:31;99839.81;;;-5.87;95.13
10720;BME280;5411;58.386;15.560;2023-04-01T03:04:59;99841.00;;;-5.91;95.15
10720;BME280;5411;58.386;15.560;2023-04-01T03:07:29;99838.94;;;-5.98;95.00
10720;BME280;5411;58.386;15.560;2023-04-01T03:09:59;99848.75;;;-6.02;94.33
10720;BME280;5411;58.386;15.560;2023-04-01T03:12:27;99846.78;;;-6.11;94.21
10720;BME280;5411;58.386;15.560;2023-04-01T03:14:55;99849.94;;;-6.19;94.62
10720;BME280;5411;58.386;15.560;2023-04-01T03:17:36;99854.88;;;-6.27;93.91
10720;BME280;5411;58.386;15.560;2023-04-01T03:20:05;99847.81;;;-6.37;94.76
10720;BME280;5411;58.386;15.560;2023-04-01T03:22:35;99853.47;;;-6.43;95.43
10720;BME280;5411;58.386;15.560;2023-04-01T03:25:05;99853.69;;;-6.47;97.61
10720;BME280;5411;58.386;15.560;2023-04-01T03:27:37;99859.59;;;-6.44;99.44
10720;BME280;5411;58.386;15.560;2023-04-01T03:30:06;99860.13;;;-6.39;100.00
10720;BME280;5411;58.386;15.560;2023-04-01T03:32:36;99869.03;;;-6.31;100.00
10720;BME280;5411;58.386;15.560;2023-04-01T03:35:05;99872.75;;;-6.22;100.00
10720;BME280;5411;58.386;15.560;2023-04-01T03:37:33;99872.81;;;-6.11;100.00
10720;BME280;5411;58.386;15.560;2023-04-01T03:40:04;99878.22;;;-6.01;100.00
10720;BME280;5411;58.386;15.560;2023-04-01T03:42:33;99883.38;;;-5.89;100.00
10720;BME280;5411;58.386;15.560;2023-04-01T03:45:02;99880.69;;;-5.76;100.00
10720;BME280;5411;58.386;15.560;2023-04-01T03:47:32;99889.75;;;-5.58;100.00
10720;BME280;5411;58.386;15.560;2023-04-01T03:50:00;99884.25;;;-5.42;100.00
10720;BME280;5411;58.386;15.560;2023-04-01T03:52:30;99892.69;;;-5.27;100.00
10720;BME280;5411;58.386;15.560;2023-04-01T03:54:59;99891.91;;;-5.17;100.00
10720;BME280;5411;58.386;15.560;2023-04-01T03:57:30;99902.59;;;-5.09;100.00
10720;BME280;5411;58.386;15.560;2023-04-01T03:59:59;99892.63;;;-5.04;100.00
10720;BME280;5411;58.386;15.560;2023-04-01T04:02:27;99901.91;;;-4.99;100.00
10720;BME280;5411;58.386;15.560;2023-04-01T04:04:55;99905.13;;;-4.96;100.00
10720;BME280;5411;58.386;15.560;2023-04-01T04:07:23;99909.97;;;-4.91;99.25
10720;BME280;5411;58.386;15.560;2023-04-01T04:09:51;99920.19;;;-4.88;98.98
10720;BME280;5411;58.386;15.560;2023-04-01T04:12:20;99907.84;;;-4.86;98.93
10720;BME280;5411;58.386;15.560;2023-04-01T04:14:49;99915.44;;;-4.83;98.43
10720;BME280;5411;58.386;15.560;2023-04-01T04:17:17;99922.22;;;-4.81;98.20
10720;BME280;5411;58.386;15.560;2023-04-01T04:19:46;99920.31;;;-4.79;97.53
10720;BME280;5411;58.386;15.560;2023-04-01T04:22:14;99927.06;;;-4.76;97.64
10720;BME280;5411;58.386;15.560;2023-04-01T04:24:42;99928.72;;;-4.75;96.73
10720;BME280;5411;58.386;15.560;2023-04-01T04:27:11;99930.28;;;-4.73;96.71
10720;BME280;5411;58.386;15.560;2023-04-01T04:29:39;99929.34;;;-4.72;96.69
10720;BME280;5411;58.386;15.560;2023-04-01T04:32:09;99927.69;;;-4.73;96.77
10720;BME280;5411;58.386;15.560;2023-04-01T04:34:38;99929.44;;;-4.73;96.29
10720;BME280;5411;58.386;15.560;2023-04-01T04:37:06;99940.84;;;-4.74;96.57
10720;BME280;5411;58.386;15.560;2023-04-01T04:39:34;99930.41;;;-4.74;97.04
10720;BME280;5411;58.386;15.560;2023-04-01T04:42:02;99932.78;;;-4.71;96.44
10720;BME280;5411;58.386;15.560;2023-04-01T04:44:31;99931.00;;;-4.71;95.47
10720;BME280;5411;58.386;15.560;2023-04-01T04:46:59;99941.91;;;-4.66;95.42
10720;BME280;5411;58.386;15.560;2023-04-01T04:49:29;99940.84;;;-4.63;95.19
10720;BME280;5411;58.386;15.560;2023-04-01T04:51:57;99937.06;;;-4.59;94.64
10720;BME280;5411;58.386;15.560;2023-04-01T04:54:26;99958.28;;;-4.52;94.43
10720;BME280;5411;58.386;15.560;2023-04-01T04:56:54;99940.50;;;-4.47;93.53
10720;BME280;5411;58.386;15.560;2023-04-01T04:59:22;99942.66;;;-4.41;94.64
10720;BME280;5411;58.386;15.560;2023-04-01T05:01:50;99950.00;;;-4.35;94.09
10720;BME280;5411;58.386;15.560;2023-04-01T05:04:19;99952.28;;;-4.31;93.84
10720;BME280;5411;58.386;15.560;2023-04-01T05:06:48;99950.94;;;-4.25;93.82
10720;BME280;5411;58.386;15.560;2023-04-01T05:09:18;99960.09;;;-4.19;93.30
10720;BME280;5411;58.386;15.560;2023-04-01T05:11:46;99955.25;;;-4.13;92.64
10720;BME280;5411;58.386;15.560;2023-04-01T05:14:15;99957.38;;;-4.07;91.65
10720;BME280;5411;58.386;15.560;2023-04-01T05:16:43;99962.94;;;-4.00;90.52
10720;BME280;5411;58.386;15.560;2023-04-01T05:19:12;99961.63;;;-3.95;90.27
10720;BME280;5411;58.386;15.560;2023-04-01T05:21:40;99965.44;;;-3.87;89.90
10720;BME280;5411;58.386;15.560;2023-04-01T05:24:09;99970.88;;;-3.79;89.02
10720;BME280;5411;58.386;15.560;2023-04-01T05:26:38;99974.78;;;-3.74;88.58
10720;BME280;5411;58.386;15.560;2023-04-01T05:29:06;99975.00;;;-3.66;87.99
10720;BME280;5411;58.386;15.560;2023-04-01T05:31:34;99977.81;;;-3.58;87.42
10720;BME280;5411;58.386;15.560;2023-04-01T05:34:02;99984.94;;;-3.48;86.92
10720;BME280;5411;58.386;15.560;2023-04-01T05:36:30;99994.66;;;-3.39;86.35
10720;BME280;5411;58.386;15.560;2023-04-01T05:38:58;99989.41;;;-3.28;85.89
10720;BME280;5411;58.386;15.560;2023-04-01T05:41:28;99992.91;;;-3.18;85.74
10720;BME280;5411;58.386;15.560;2023-04-01T05:43:57;99995.53;;;-3.07;84.99
10720;BME280;5411;58.386;15.560;2023-04-01T05:46:26;99995.47;;;-2.96;84.66
10720;BME280;5411;58.386;15.560;2023-04-01T05:48:54;99995.53;;;-2.86;84.39
10720;BME280;5411;58.386;15.560;2023-04-01T05:51:24;100003.56;;;-2.78;83.24
10720;BME280;5411;58.386;15.560;2023-04-01T05:53:53;100006.16;;;-2.67;83.47
10720;BME280;5411;58.386;15.560;2023-04-01T05:56:21;100006.09;;;-2.56;82.65
10720;BME280;5411;58.386;15.560;2023-04-01T05:58:54;100007.81;;;-2.45;82.34
10720;BME280;5411;58.386;15.560;2023-04-01T06:01:22;100009.50;;;-2.34;81.05
10720;BME280;5411;58.386;15.560;2023-04-01T06:03:50;100010.38;;;-2.24;80.77
10720;BME280;5411;58.386;15.560;2023-04-01T06:06:23;100009.75;;;-2.17;79.83
10720;BME280;5411;58.386;15.560;2023-04-01T06:08:52;100014.91;;;-2.05;79.00
10720;BME280;5411;58.386;15.560;2023-04-01T06:11:28;100019.22;;;-1.95;77.17
10720;BME280;5411;58.386;15.560;2023-04-01T06:14:11;100024.25;;;-1.82;76.79
10720;BME280;5411;58.386;15.560;2023-04-01T06:16:53;100020.44;;;-1.68;75.73
10720;BME280;5411;58.386;15.560;2023-04-01T06:19:32;100021.97;;;-1.66;74.72
10720;BME280;5411;58.386;15.560;2023-04-01T06:22:31;100031.25;;;-1.52;74.29
10720;BME280;5411;58.386;15.560;2023-04-01T06:25:34;100019.13;;;-1.44;73.61
10720;BME280;5411;58.386;15.560;2023-04-01T06:31:04;100024.56;;;-1.16;70.27
10720;BME280;5411;58.386;15.560;2023-04-01T06:33:51;100038.09;;;-1.11;70.87
10720;BME280;5411;58.386;15.560;2023-04-01T06:36:39;100036.56;;;-1.14;69.47
10720;BME280;5411;58.386;15.560;2023-04-01T06:39:20;100033.81;;;-1.12;70.22
10720;BME280;5411;58.386;15.560;2023-04-01T06:45:06;100035.66;;;-0.93;69.28
10720;BME280;5411;58.386;15.560;2023-04-01T06:47:55;100036.75;;;-0.86;68.33
10720;BME280;5411;58.386;15.560;2023-04-01T06:50:29;100038.53;;;-0.87;68.79
10720;BME280;5411;58.386;15.560;2023-04-01T06:53:03;100039.78;;;-0.81;69.83
10720;BME280;5411;58.386;15.560;2023-04-01T06:55:39;100039.09;;;-0.74;69.89
10720;BME280;5411;58.386;15.560;2023-04-01T06:58:27;100042.81;;;-0.57;70.02
10720;BME280;5411;58.386;15.560;2023-04-01T07:00:58;100047.66;;;-0.43;69.40
10720;BME280;5411;58.386;15.560;2023-04-01T07:03:33;100048.19;;;-0.29;69.15
10720;BME280;5411;58.386;15.560;2023-04-01T07:06:04;100052.44;;;-0.19;69.04
10720;BME280;5411;58.386;15.560;2023-04-01T07:08:35;100046.31;;;-0.10;69.26
10720;BME280;5411;58.386;15.560;2023-04-01T07:11:06;100050.06;;;-0.03;68.75
10720;BME280;5411;58.386;15.560;2023-04-01T07:13:39;100055.53;;;0.14;68.70
10720;BME280;5411;58.386;15.560;2023-04-01T07:16:12;100064.09;;;0.25;69.22
10720;BME280;5411;58.386;15.560;2023-04-01T07:18:48;100051.59;;;0.27;68.74
10720;BME280;5411;58.386;15.560;2023-04-01T07:21:23;100062.66;;;0.31;69.60
10720;BME280;5411;58.386;15.560;2023-04-01T07:23:54;100060.44;;;0.36;70.10
10720;BME280;5411;58.386;15.560;2023-04-01T07:26:28;100071.59;;;0.48;69.89
10720;BME280;5411;58.386;15.560;2023-04-01T07:28:56;100063.22;;;0.62;69.39
10720;BME280;5411;58.386;15.560;2023-04-01T07:31:46;100080.47;;;0.74;68.76
10720;BME280;5411;58.386;15.560;2023-04-01T07:34:24;100071.97;;;0.80;69.29
10720;BME280;5411;58.386;15.560;2023-04-01T07:36:58;100073.06;;;0.87;70.36
10720;BME280;5411;58.386;15.560;2023-04-01T07:39:36;100074.38;;;1.01;69.78
10720;BME280;5411;58.386;15.560;2023-04-01T07:42:14;100080.31;;;1.03;69.11
10720;BME280;5411;58.386;15.560;2023-04-01T07:44:50;100078.72;;;1.10;69.70
10720;BME280;5411;58.386;15.560;2023-04-01T07:47:41;100083.78;;;1.21;69.69
10720;BME280;5411;58.386;15.560;2023-04-01T07:50:21;100087.31;;;1.12;68.71
10720;BME280;5411;58.386;15.560;2023-04-01T07:53:01;100091.69;;;1.03;68.52
10720;BME280;5411;58.386;15.560;2023-04-01T07:55:37;100098.34;;;0.98;69.77
10720;BME280;5411;58.386;15.560;2023-04-01T07:58:14;100094.47;;;1.02;69.78
10720;BME280;5411;58.386;15.560;2023-04-01T08:00:51;100101.53;;;1.01;69.76
10720;BME280;5411;58.386;15.560;2023-04-01T08:03:36;100104.31;;;1.00;71.02
10720;BME280;5411;58.386;15.560;2023-04-01T08:06:13;100098.59;;;1.04;70.94
10720;BME280;5411;58.386;15.560;2023-04-01T08:08:52;100095.44;;;1.01;71.59
10720;BME280;5411;58.386;15.560;2023-04-01T08:11:32;100114.56;;;1.03;71.94
10720;BME280;5411;58.386;15.560;2023-04-01T08:14:10;100120.03;;;1.10;71.08
10720;BME280;5411;58.386;15.560;2023-04-01T08:16:46;100122.69;;;1.10;71.64
10720;BME280;5411;58.386;15.560;2023-04-01T08:19:30;100123.00;;;1.24;72.23
10720;BME280;5411;58.386;15.560;2023-04-01T08:22:07;100133.03;;;1.38;72.83
10720;BME280;5411;58.386;15.560;2023-04-01T08:24:41;100135.28;;;1.51;71.82
10720;BME280;5411;58.386;15.560;2023-04-01T08:27:18;100147.75;;;1.59;69.85
10720;BME280;5411;58.386;15.560;2023-04-01T08:29:55;100127.47;;;1.59;70.79
10720;BME280;5411;58.386;15.560;2023-04-01T08:32:30;100137.84;;;1.61;70.21
10720;BME280;5411;58.386;15.560;2023-04-01T08:35:08;100139.50;;;1.62;70.60
10720;BME280;5411;58.386;15.560;2023-04-01T08:37:41;100149.31;;;1.69;70.12
10720;BME280;5411;58.386;15.560;2023-04-01T08:40:58;100140.03;;;1.83;71.20
10720;BME280;5411;58.386;15.560;2023-04-01T08:44:04;100146.25;;;2.00;69.57
10720;BME280;5411;58.386;15.560;2023-04-01T08:47:00;100153.03;;;2.02;69.00
10720;BME280;5411;58.386;15.560;2023-04-01T08:52:59;100160.56;;;2.15;69.32
10720;BME280;5411;58.386;15.560;2023-04-01T08:55:40;100165.28;;;2.29;69.36
10720;BME280;5411;58.386;15.560;2023-04-01T08:58:37;100174.41;;;2.35;68.11
10720;BME280;5411;58.386;15.560;2023-04-01T09:01:20;100175.78;;;2.21;67.04
10720;BME280;5411;58.386;15.560;2023-04-01T09:04:14;100182.66;;;2.14;68.29
10720;BME280;5411;58.386;15.560;2023-04-01T09:07:06;100180.91;;;2.23;68.47
10720;BME280;5411;58.386;15.560;2023-04-01T09:13:03;100181.69;;;2.41;68.23
10720;BME280;5411;58.386;15.560;2023-04-01T09:16:03;100177.50;;;2.56;67.82
10720;BME280;5411;58.386;15.560;2023-04-01T09:18:59;100182.22;;;2.70;67.71
10720;BME280;5411;58.386;15.560;2023-04-01T09:21:56;100179.38;;;2.64;66.20
10720;BME280;5411;58.386;15.560;2023-04-01T09:27:45;100212.19;;;2.61;66.41
10720;BME280;5411;58.386;15.560;2023-04-01T09:30:44;100195.22;;;2.64;65.75
10720;BME280;5411;58.386;15.560;2023-04-01T09:36:38;100215.72;;;2.70;66.36
10720;BME280;5411;58.386;15.560;2023-04-01T09:39:24;100208.16;;;2.75;64.88
10720;BME280;5411;58.386;15.560;2023-04-01T09:42:14;100191.88;;;2.88;65.46
10720;BME280;5411;58.386;15.560;2023-04-01T09:44:48;100211.13;;;3.06;64.89
10720;BME280;5411;58.386;15.560;2023-04-01T09:47:39;100213.28;;;3.10;63.90
10720;BME280;5411;58.386;15.560;2023-04-01T09:50:34;100228.38;;;3.18;64.14
10720;BME280;5411;58.386;15.560;2023-04-01T09:53:17;100219.13;;;3.22;62.77
10720;BME280;5411;58.386;15.560;2023-04-01T10:02:30;100217.06;;;3.42;62.12
10720;BME280;5411;58.386;15.560;2023-04-01T10:14:40;100240.28;;;3.72;61.03
10720;BME280;5411;58.386;15.560;2023-04-01T10:18:04;100238.63;;;3.71;59.84
10720;BME280;5411;58.386;15.560;2023-04-01T10:20:51;100240.44;;;3.71;59.89
10720;BME280;5411;58.386;15.560;2023-04-01T10:26:39;100227.25;;;3.95;59.52
10720;BME280;5411;58.386;15.560;2023-04-01T10:29:43;100236.53;;;3.99;59.43
10720;BME280;5411;58.386;15.560;2023-04-01T10:54:29;100254.75;;;4.51;56.58
10720;BME280;5411;58.386;15.560;2023-04-01T10:57:16;100259.38;;;4.41;55.48
10720;BME280;5411;58.386;15.560;2023-04-01T11:00:28;100257.75;;;4.23;55.94
10720;BME280;5411;58.386;15.560;2023-04-01T11:09:54;100246.78;;;4.26;56.25
10720;BME280;5411;58.386;15.560;2023-04-01T11:19:08;100267.69;;;4.38;56.56
10720;BME280;5411;58.386;15.560;2023-04-01T11:22:19;100276.59;;;4.53;56.29
10720;BME280;5411;58.386;15.560;2023-04-01T11:28:16;100284.56;;;4.77;57.39
10720;BME280;5411;58.386;15.560;2023-04-01T11:31:04;100292.13;;;4.96;56.72
10720;BME280;5411;58.386;15.560;2023-04-01T11:33:39;100288.31;;;4.99;56.07
10720;BME280;5411;58.386;15.560;2023-04-01T11:36:31;100288.50;;;5.06;56.28
10720;BME280;5411;58.386;15.560;2023-04-01T11:39:21;100305.84;;;5.16;54.32
10720;BME280;5411;58.386;15.560;2023-04-01T11:42:04;100296.44;;;5.06;53.58
10720;BME280;5411;58.386;15.560;2023-04-01T11:44:41;100305.84;;;5.08;54.33
10720;BME280;5411;58.386;15.560;2023-04-01T11:47:24;100298.72;;;5.17;54.36
10720;BME280;5411;58.386;15.560;2023-04-01T11:50:16;100301.06;;;5.12;53.71
10720;BME280;5411;58.386;15.560;2023-04-01T11:53:13;100303.69;;;5.20;54.46
10720;BME280;5411;58.386;15.560;2023-04-01T11:55:53;100306.81;;;5.31;55.34
10720;BME280;5411;58.386;15.560;2023-04-01T11:58:40;100305.13;;;5.38;54.30
10720;BME280;5411;58.386;15.560;2023-04-01T12:01:19;100308.59;;;5.39;55.22
10720;BME280;5411;58.386;15.560;2023-04-01T12:04:04;100293.38;;;5.33;53.67
10720;BME280;5411;58.386;15.560;2023-04-01T12:06:41;100308.97;;;5.20;54.00
10720;BME280;5411;58.386;15.560;2023-04-01T12:09:19;100302.19;;;5.25;55.34
10720;BME280;5411;58.386;15.560;2023-04-01T12:11:57;100310.97;;;5.26;54.60
10720;BME280;5411;58.386;15.560;2023-04-01T12:14:36;100299.38;;;5.27;55.22
10720;BME280;5411;58.386;15.560;2023-04-01T12:17:30;100311.63;;;5.28;54.14
10720;BME280;5411;58.386;15.560;2023-04-01T12:20:21;100302.50;;;5.30;56.28
10720;BME280;5411;58.386;15.560;2023-04-01T12:23:02;100306.78;;;5.40;56.19
10720;BME280;5411;58.386;15.560;2023-04-01T12:26:00;100308.56;;;5.47;55.35
10720;BME280;5411;58.386;15.560;2023-04-01T12:28:43;100314.53;;;5.57;54.71
10720;BME280;5411;58.386;15.560;2023-04-01T12:31:30;100318.31;;;5.63;55.27
10720;BME280;5411;58.386;15.560;2023-04-01T12:34:20;100325.44;;;5.62;52.77
10720;BME280;5411;58.386;15.560;2023-04-01T12:36:59;100312.88;;;5.56;54.23
10720;BME280;5411;58.386;15.560;2023-04-01T12:39:51;100317.19;;;5.57;54.91
10720;BME280;5411;58.386;15.560;2023-04-01T12:42:45;100311.84;;;5.65;54.04
10720;BME280;5411;58.386;15.560;2023-04-01T12:45:29;100319.41;;;5.77;54.57
10720;BME280;5411;58.386;15.560;2023-04-01T12:48:21;100323.69;;;5.94;54.61
10720;BME280;5411;58.386;15.560;2023-04-01T12:51:08;100319.31;;;6.01;53.97
10720;BME280;5411;58.386;15.560;2023-04-01T12:53:54;100333.41;;;6.01;53.54
10720;BME280;5411;58.386;15.560;2023-04-01T12:56:39;100317.19;;;5.96;52.44
10720;BME280;5411;58.386;15.560;2023-04-01T12:59:27;100355.06;;;5.90;53.38
10720;BME280;5411;58.386;15.560;2023-04-01T13:02:08;100331.16;;;5.90;53.35
10720;BME280;5411;58.386;15.560;2023-04-01T13:05:10;100347.91;;;5.99;53.04
10720;BME280;5411;58.386;15.560;2023-04-01T13:10:47;100334.97;;;5.96;52.51
10720;BME280;5411;58.386;15.560;2023-04-01T13:13:44;100342.53;;;6.07;53.90
10720;BME280;5411;58.386;15.560;2023-04-01T13:16:20;100348.00;;;6.05;52.66
10720;BME280;5411;58.386;15.560;2023-04-01T13:18:57;100349.66;;;6.06;52.49
10720;BME280;5411;58.386;15.560;2023-04-01T13:21:38;100359.63;;;6.04;52.84
10720;BME280;5411;58.386;15.560;2023-04-01T13:24:17;100361.94;;;6.07;52.95
10720;BME280;5411;58.386;15.560;2023-04-01T13:26:54;100354.75;;;6.16;53.37
10720;BME280;5411;58.386;15.560;2023-04-01T13:29:28;100352.69;;;6.26;53.95
10720;BME280;5411;58.386;15.560;2023-04-01T13:32:16;100369.84;;;6.24;51.81
10720;BME280;5411;58.386;15.560;2023-04-01T13:38:00;100365.56;;;6.15;52.19
10720;BME280;5411;58.386;15.560;2023-04-01T13:40:38;100371.41;;;6.10;52.18
10720;BME280;5411;58.386;15.560;2023-04-01T13:43:29;100375.91;;;6.10;52.70
10720;BME280;5411;58.386;15.560;2023-04-01T13:46:25;100372.41;;;6.09;51.75
10720;BME280;5411;58.386;15.560;2023-04-01T13:52:22;100376.97;;;6.23;53.68
10720;BME280;5411;58.386;15.560;2023-04-01T13:55:00;100383.25;;;6.30;51.66
10720;BME280;5411;58.386;15.560;2023-04-01T13:57:43;100378.06;;;6.37;52.77
10720;BME280;5411;58.386;15.560;2023-04-01T14:00:25;100382.50;;;6.44;53.01
10720;BME280;5411;58.386;15.560;2023-04-01T14:06:06;100379.78;;;6.53;51.75
10720;BME280;5411;58.386;15.560;2023-04-01T14:08:51;100379.31;;;6.49;51.67
10720;BME280;5411;58.386;15.560;2023-04-01T14:11:28;100378.78;;;6.54;52.07
10720;BME280;5411;58.386;15.560;2023-04-01T14:14:08;100381.56;;;6.60;52.83
10720;BME280;5411;58.386;15.560;2023-04-01T14:17:12;100385.91;;;6.53;51.09
10720;BME280;5411;58.386;15.560;2023-04-01T14:20:06;100386.28;;;6.50;50.00
10720;BME280;5411;58.386;15.560;2023-04-01T14:22:48;100386.28;;;6.50;51.12
10720;BME280;5411;58.386;15.560;2023-04-01T14:25:41;100400.88;;;6.54;49.80
10720;BME280;5411;58.386;15.560;2023-04-01T14:28:19;100403.06;;;6.51;50.03
10720;BME280;5411;58.386;15.560;2023-04-01T14:31:04;100397.38;;;6.54;51.41
10720;BME280;5411;58.386;15.560;2023-04-01T14:33:42;100390.41;;;6.53;50.83
10720;BME280;5411;58.386;15.560;2023-04-01T14:36:35;100402.06;;;6.52;49.53
10720;BME280;5411;58.386;15.560;2023-04-01T14:39:26;100404.34;;;6.55;49.83
10720;BME280;5411;58.386;15.560;2023-04-01T14:42:08;100403.19;;;6.57;49.23
10720;BME280;5411;58.386;15.560;2023-04-01T14:45:06;100404.00;;;6.58;50.01
10720;BME280;5411;58.386;15.560;2023-04-01T14:47:46;100416.13;;;6.60;49.39
10720;BME280;5411;58.386;15.560;2023-04-01T14:50:17;100413.94;;;6.64;50.44
10720;BME280;5411;58.386;15.560;2023-04-01T14:52:55;100413.41;;;6.68;50.76
10720;BME280;5411;58.386;15.560;2023-04-01T14:55:32;100405.09;;;6.71;50.89
10720;BME280;5411;58.386;15.560;2023-04-01T14:58:10;100418.69;;;6.76;50.80
10720;BME280;5411;58.386;15.560;2023-04-01T15:00:47;100420.03;;;6.72;50.25
10720;BME280;5411;58.386;15.560;2023-04-01T15:03:22;100412.19;;;6.79;52.17
10720;BME280;5411;58.386;15.560;2023-04-01T15:06:10;100410.16;;;6.81;51.10
10720;BME280;5411;58.386;15.560;2023-04-01T15:08:44;100418.78;;;6.83;50.81
10720;BME280;5411;58.386;15.560;2023-04-01T15:11:27;100427.94;;;6.80;50.32
10720;BME280;5411;58.386;15.560;2023-04-01T15:14:36;100429.31;;;6.76;50.54
10720;BME280;5411;58.386;15.560;2023-04-01T15:17:20;100422.69;;;6.72;50.77
10720;BME280;5411;58.386;15.560;2023-04-01T15:20:18;100425.53;;;6.71;49.90
10720;BME280;5411;58.386;15.560;2023-04-01T15:26:04;100441.97;;;6.66;51.88
10720;BME280;5411;58.386;15.560;2023-04-01T15:28:39;100435.56;;;6.61;51.55